Time;durP1;ratioP1;P1;durP2;ratioP2;P2;SDS_P1;SDS_P2;PMS_P1;PMS_P2;Temp;Humidity;BMP_temperature;BMP_pressure;BME280_temperature;BME280_humidity;BME280_pressure;Samples;Min_cycle;Max_cycle;Signal;HPM_P1;HPM_P2
2021/05/05 00:01:20;;;;;;;;;;;;;;;10.76;51.19;95182.22;3575646;40;19953;-52
2021/05/05 00:03:47;;;;;;;;;;;;;;;10.76;51.82;95184.03;3581082;40;19950;-53
2021/05/05 00:06:16;;;;;;;;;;;;;;;10.74;51.21;95186.97;3568816;40;20550;-53
2021/05/05 00:08:44;;;;;;;;;;;;;;;10.71;51.37;95171.69;3581238;40;20270;-53
2021/05/05 00:11:11;;;;;;;;;;;;;;;10.70;51.30;95166.69;3583810;40;20303;-53
2021/05/05 00:13:38;;;;;;;;;;;;;;;10.67;51.73;95162.72;3581275;40;19943;-53
2021/05/05 00:16:05;;;;;;;;;;;;;;;10.66;52.15;95158.50;3570708;40;19959;-53
2021/05/05 00:18:33;;;;;;;;;;;;;;;10.63;52.61;95160.91;3575218;40;19959;-53
2021/05/05 00:21:00;;;;;;;;;;;;;;;10.58;52.87;95161.75;3570201;40;19937;-53
2021/05/05 00:23:27;;;;;;;;;;;;;;;10.55;53.19;95155.16;3571951;40;20066;-52
2021/05/05 00:25:54;;;;;;;;;;;;;;;10.50;53.72;95149.16;3578750;40;20010;-53
2021/05/05 00:28:21;;;;;;;;;;;;;;;10.43;54.22;95144.94;3569361;40;19936;-53
2021/05/05 00:30:48;;;;;;;;;;;;;;;10.41;54.79;95148.94;3577630;40;19936;-52
2021/05/05 00:33:15;;;;;;;;;;;;;;;10.38;55.20;95146.84;3579925;40;19936;-53
2021/05/05 00:35:42;;;;;;;;;;;;;;;10.37;55.28;95140.75;3579094;40;19937;-53
2021/05/05 00:38:10;;;;;;;;;;;;;;;10.34;55.93;95138.66;3572084;40;19955;-53
2021/05/05 00:40:37;;;;;;;;;;;;;;;10.35;55.45;95140.22;3581424;40;19955;-53
2021/05/05 00:43:04;;;;;;;;;;;;;;;10.36;55.28;95138.38;3560927;40;19951;-53
2021/05/05 00:45:31;;;;;;;;;;;;;;;10.36;55.41;95135.72;3570375;40;19955;-53
2021/05/05 00:47:58;;;;;;;;;;;;;;;10.35;55.44;95132.31;3578780;40;19937;-53
2021/05/05 00:50:25;;;;;;;;;;;;;;;10.35;55.29;95127.06;3577154;40;19958;-52
2021/05/05 00:52:52;;;;;;;;;;;;;;;10.37;54.60;95135.47;3567372;40;19952;-53
2021/05/05 00:55:19;;;;;;;;;;;;;;;10.44;54.04;95135.22;3569706;40;19943;-53
2021/05/05 00:57:50;;;;;;;;;;;;;;;10.46;54.30;95133.88;3580430;40;19940;-53
2021/05/05 01:00:18;;;;;;;;;;;;;;;10.48;54.17;95130.94;3571049;40;19944;-53
2021/05/05 01:02:46;;;;;;;;;;;;;;;10.48;54.60;95133.56;3579931;40;19948;-53
2021/05/05 01:05:13;;;;;;;;;;;;;;;10.49;54.66;95134.38;3570063;40;20664;-53
2021/05/05 01:07:41;;;;;;;;;;;;;;;10.48;55.42;95135.44;3563206;40;19952;-53
2021/05/05 01:10:11;;;;;;;;;;;;;;;10.46;55.72;95119.91;3577874;40;19944;-52
2021/05/05 01:12:39;;;;;;;;;;;;;;;10.48;54.65;95127.53;3578528;40;19950;-53
2021/05/05 01:15:06;;;;;;;;;;;;;;;10.50;55.00;95118.28;3570097;40;20226;-53
2021/05/05 01:17:35;;;;;;;;;;;;;;;10.47;56.09;95118.81;3576671;40;19955;-53
2021/05/05 01:20:06;;;;;;;;;;;;;;;10.37;56.15;95114.38;3569265;40;19948;-52
2021/05/05 01:22:34;;;;;;;;;;;;;;;10.41;56.30;95118.06;3580715;40;19944;-51
2021/05/05 01:25:02;;;;;;;;;;;;;;;10.37;56.46;95119.66;3577579;40;19947;-52
2021/05/05 01:27:29;;;;;;;;;;;;;;;10.33;56.80;95117.84;3571548;40;19955;-52
2021/05/05 01:29:56;;;;;;;;;;;;;;;10.29;56.80;95101.78;3580372;40;20281;-52
2021/05/05 01:32:24;;;;;;;;;;;;;;;10.23;57.12;95110.78;3579614;40;19936;-53
2021/05/05 01:34:52;;;;;;;;;;;;;;;10.23;56.22;95108.16;3562313;40;20027;-52
2021/05/05 01:37:19;;;;;;;;;;;;;;;10.23;56.75;95102.88;3567288;40;20298;-53
2021/05/05 01:39:46;;;;;;;;;;;;;;;10.22;56.40;95091.53;3556999;40;20209;-52
2021/05/05 01:42:14;;;;;;;;;;;;;;;10.20;56.23;95096.31;3565607;40;19953;-52
2021/05/05 01:44:41;;;;;;;;;;;;;;;10.18;55.94;95082.63;3560272;40;19963;-52
2021/05/05 01:47:12;;;;;;;;;;;;;;;10.18;56.18;95089.72;3562621;40;19951;-52
2021/05/05 01:49:42;;;;;;;;;;;;;;;10.14;56.15;95092.91;3568706;40;19948;-52
2021/05/05 01:52:12;;;;;;;;;;;;;;;10.13;55.74;95088.72;3566164;40;19943;-52
2021/05/05 01:54:39;;;;;;;;;;;;;;;10.11;55.98;95096.09;3560104;40;20290;-53
2021/05/05 01:57:25;;;;;;;;;;;;;;;10.09;55.92;95092.94;3569206;40;19959;-52
2021/05/05 01:59:56;;;;;;;;;;;;;;;10.06;56.02;95092.69;3567402;40;19949;-53
2021/05/05 02:02:26;;;;;;;;;;;;;;;10.02;55.93;95081.94;3568484;40;20758;-52
2021/05/05 02:04:54;;;;;;;;;;;;;;;10.03;55.83;95082.69;3569417;40;19945;-53
2021/05/05 02:07:36;;;;;;;;;;;;;;;10.02;56.08;95081.13;3560819;40;19943;-53
2021/05/05 02:10:05;;;;;;;;;;;;;;;10.02;56.21;95081.13;3570086;40;19937;-53
2021/05/05 02:12:33;;;;;;;;;;;;;;;10.00;56.32;95076.13;3566662;40;19982;-52
2021/05/05 02:15:00;;;;;;;;;;;;;;;10.00;56.23;95073.50;3572488;40;19941;-53
2021/05/05 02:17:27;;;;;;;;;;;;;;;10.00;56.63;95068.22;3568946;40;19968;-52
2021/05/05 02:19:54;;;;;;;;;;;;;;;9.98;56.14;95065.06;3561268;40;19940;-52
2021/05/05 02:22:21;;;;;;;;;;;;;;;9.96;56.18;95064.56;3571740;40;19949;-52
2021/05/05 02:24:48;;;;;;;;;;;;;;;9.95;55.85;95069.06;3569829;40;19949;-52
2021/05/05 02:27:16;;;;;;;;;;;;;;;9.92;56.95;95066.16;3566430;40;19974;-52
2021/05/05 02:29:44;;;;;;;;;;;;;;;9.87;56.64;95066.97;3567280;40;19996;-52
2021/05/05 02:32:31;;;;;;;;;;;;;;;9.85;56.82;95069.88;3563282;40;19943;-52
2021/05/05 02:34:59;;;;;;;;;;;;;;;9.83;56.77;95064.09;3560759;40;19995;-52
2021/05/05 02:37:27;;;;;;;;;;;;;;;9.81;56.47;95063.56;3563755;40;20412;-52
2021/05/05 02:39:54;;;;;;;;;;;;;;;9.80;56.16;95075.16;3579052;40;20286;-52
2021/05/05 02:42:27;;;;;;;;;;;;;;;9.79;56.42;95063.06;3567538;40;19936;-52
2021/05/05 02:44:54;;;;;;;;;;;;;;;9.78;56.11;95055.44;3579403;40;19933;-53
2021/05/05 02:47:21;;;;;;;;;;;;;;;9.77;56.63;95064.38;3579461;40;19951;-52
2021/05/05 02:49:49;;;;;;;;;;;;;;;9.75;55.87;95063.88;3579814;40;19940;-52
2021/05/05 02:52:17;;;;;;;;;;;;;;;9.71;56.51;95058.38;3580479;39;19937;-52
2021/05/05 02:54:44;;;;;;;;;;;;;;;9.68;56.69;95051.81;3583564;40;19941;-52
2021/05/05 02:57:12;;;;;;;;;;;;;;;9.64;56.78;95052.63;3581686;40;20190;-52
2021/05/05 02:59:39;;;;;;;;;;;;;;;9.62;57.15;95052.09;3577707;40;19948;-52
2021/05/05 03:02:06;;;;;;;;;;;;;;;9.57;57.30;95050.28;3577540;40;21552;-53
2021/05/05 03:04:33;;;;;;;;;;;;;;;9.57;56.88;95055.53;3571916;40;19948;-52
2021/05/05 03:07:00;;;;;;;;;;;;;;;9.51;57.71;95062.66;3579054;40;19941;-52
2021/05/05 03:09:27;;;;;;;;;;;;;;;9.48;58.05;95055.31;3571147;40;20320;-52
2021/05/05 03:11:55;;;;;;;;;;;;;;;9.45;58.39;95058.47;3570958;40;19940;-53
2021/05/05 03:14:24;;;;;;;;;;;;;;;9.42;59.10;95055.59;3576505;40;19952;-52
2021/05/05 03:16:51;;;;;;;;;;;;;;;9.41;58.76;95054.81;3575390;40;19942;-53
2021/05/05 03:19:18;;;;;;;;;;;;;;;9.40;58.92;95053.25;3581425;40;19947;-53
2021/05/05 03:21:45;;;;;;;;;;;;;;;9.39;59.12;95051.66;3568472;40;19948;-53
2021/05/05 03:24:12;;;;;;;;;;;;;;;9.38;58.88;95050.84;3579249;40;19936;-52
2021/05/05 03:26:40;;;;;;;;;;;;;;;9.39;58.81;95055.06;3568943;40;19943;-52
2021/05/05 03:29:07;;;;;;;;;;;;;;;9.44;58.15;95051.63;3566840;40;20311;-53
2021/05/05 03:31:34;;;;;;;;;;;;;;;9.46;58.19;95049.53;3561333;40;19947;-52
2021/05/05 03:34:01;;;;;;;;;;;;;;;9.48;58.08;95043.97;3581138;40;19964;-52
2021/05/05 03:36:29;;;;;;;;;;;;;;;9.46;58.92;95046.13;3581463;40;19937;-52
2021/05/05 03:38:56;;;;;;;;;;;;;;;9.41;58.60;95046.13;3580264;40;19944;-52
2021/05/05 03:41:23;;;;;;;;;;;;;;;9.38;59.04;95055.34;3569763;40;20293;-53
2021/05/05 03:43:50;;;;;;;;;;;;;;;9.35;58.66;95069.03;3576426;40;19944;-53
2021/05/05 03:46:17;;;;;;;;;;;;;;;9.30;59.66;95072.47;3577373;40;20275;-52
2021/05/05 03:48:44;;;;;;;;;;;;;;;9.21;60.78;95069.59;3581822;40;19937;-53
2021/05/05 03:51:11;;;;;;;;;;;;;;;9.10;62.01;95068.06;3581343;40;19937;-52
2021/05/05 03:53:38;;;;;;;;;;;;;;;9.00;62.23;95068.84;3579951;40;19943;-53
2021/05/05 03:56:05;;;;;;;;;;;;;;;8.88;63.56;95074.41;3576922;40;20371;-52
2021/05/05 03:58:32;;;;;;;;;;;;;;;8.78;62.91;95071.78;3569517;40;19962;-52
2021/05/05 04:01:00;;;;;;;;;;;;;;;8.71;63.90;95068.63;3569201;40;19956;-52
2021/05/05 04:03:27;;;;;;;;;;;;;;;8.69;63.78;95068.91;3569214;40;19943;-52
2021/05/05 04:05:54;;;;;;;;;;;;;;;8.73;63.09;95063.91;3574895;40;19944;-52
2021/05/05 04:08:21;;;;;;;;;;;;;;;8.76;63.21;95058.13;3570091;40;19951;-51
2021/05/05 04:10:48;;;;;;;;;;;;;;;8.83;63.32;95073.63;3577788;40;19936;-52
2021/05/05 04:13:15;;;;;;;;;;;;;;;8.86;63.43;95070.47;3581805;40;19946;-52
2021/05/05 04:16:01;;;;;;;;;;;;;;;8.90;63.53;95063.63;3577699;40;20007;-53
2021/05/05 04:18:45;;;;;;;;;;;;;;;8.90;63.86;95064.41;3568959;40;20187;-53
2021/05/05 04:21:31;;;;;;;;;;;;;;;8.96;62.84;95059.13;3563324;40;20300;-52
2021/05/05 04:24:16;;;;;;;;;;;;;;;9.00;63.62;95057.56;3569272;40;19966;-52
2021/05/05 04:26:44;;;;;;;;;;;;;;;9.00;63.86;95053.06;3576410;40;20294;-52
2021/05/05 04:29:11;;;;;;;;;;;;;;;9.03;63.35;95055.19;3570636;40;19945;-52
2021/05/05 04:31:38;;;;;;;;;;;;;;;9.05;63.36;95058.34;3577935;40;19944;-53
2021/05/05 04:34:09;;;;;;;;;;;;;;;9.13;63.22;95062.25;3580846;40;19944;-53
2021/05/05 04:36:36;;;;;;;;;;;;;;;9.20;62.95;95061.97;3572809;40;19940;-52
2021/05/05 04:39:03;;;;;;;;;;;;;;;9.23;63.03;95064.88;3582992;40;19932;-54
2021/05/05 04:41:31;;;;;;;;;;;;;;;9.25;63.10;95058.56;3569726;40;19947;-52
2021/05/05 04:43:58;;;;;;;;;;;;;;;9.33;63.49;95056.16;3579997;40;19940;-53
2021/05/05 04:46:25;;;;;;;;;;;;;;;9.39;62.67;95056.94;3581135;40;19937;-52
2021/05/05 04:48:52;;;;;;;;;;;;;;;9.51;62.68;95065.31;3573986;40;19948;-52
2021/05/05 04:51:19;;;;;;;;;;;;;;;9.62;62.38;95063.41;3579195;40;20279;-53
2021/05/05 04:53:46;;;;;;;;;;;;;;;9.80;61.48;95059.38;3570206;40;19945;-52
2021/05/05 04:56:13;;;;;;;;;;;;;;;9.98;61.42;95063.22;3567531;40;19937;-52
2021/05/05 04:58:40;;;;;;;;;;;;;;;10.27;60.23;95051.97;3571074;40;19952;-53
2021/05/05 05:01:07;;;;;;;;;;;;;;;10.42;59.72;95059.00;3579561;40;19949;-54
2021/05/05 05:03:34;;;;;;;;;;;;;;;10.64;59.60;95054.34;3575763;40;20525;-53
2021/05/05 05:06:01;;;;;;;;;;;;;;;10.90;58.46;95055.72;3570541;40;19932;-53
2021/05/05 05:08:28;;;;;;;;;;;;;;;11.01;58.60;95053.78;3582026;40;19936;-52
2021/05/05 05:10:55;;;;;;;;;;;;;;;11.15;58.24;95050.44;3564095;40;19955;-52
2021/05/05 05:13:23;;;;;;;;;;;;;;;11.16;57.69;95052.00;3570776;40;19936;-53
2021/05/05 05:15:50;;;;;;;;;;;;;;;11.19;57.86;95049.63;3578671;40;19948;-55
2021/05/05 05:18:17;;;;;;;;;;;;;;;11.21;58.27;95057.25;3578057;40;19936;-52
2021/05/05 05:20:44;;;;;;;;;;;;;;;11.25;58.02;95060.13;3571031;40;19940;-53
2021/05/05 05:23:11;;;;;;;;;;;;;;;11.34;57.04;95053.94;3580389;40;20311;-53
2021/05/05 05:25:38;;;;;;;;;;;;;;;11.47;56.75;95051.69;3581242;40;20202;-53
2021/05/05 05:28:05;;;;;;;;;;;;;;;11.51;54.78;95031.56;3577659;40;20201;-54
2021/05/05 05:30:32;;;;;;;;;;;;;;;11.69;54.50;95046.66;3564057;40;19947;-54
2021/05/05 05:32:59;;;;;;;;;;;;;;;11.85;54.23;95047.22;3578726;40;19970;-54
2021/05/05 05:35:27;;;;;;;;;;;;;;;11.96;52.62;95053.19;3582646;40;20191;-53
2021/05/05 05:37:54;;;;;;;;;;;;;;;12.11;51.94;95049.56;3580592;40;19939;-53
2021/05/05 05:40:21;;;;;;;;;;;;;;;12.18;51.22;95038.63;3572549;40;19967;-53
2021/05/05 05:42:48;;;;;;;;;;;;;;;12.20;50.63;95033.03;3571110;40;19943;-53
2021/05/05 05:45:16;;;;;;;;;;;;;;;12.24;51.28;95031.41;3569512;40;20027;-53
2021/05/05 05:47:43;;;;;;;;;;;;;;;12.27;50.68;95033.47;3563100;40;20023;-53
2021/05/05 05:50:11;;;;;;;;;;;;;;;12.33;50.42;95037.59;3561911;40;19944;-53
2021/05/05 05:52:38;;;;;;;;;;;;;;;12.35;50.93;95037.34;3560806;40;19948;-52
2021/05/05 05:55:07;;;;;;;;;;;;;;;12.44;49.88;95030.31;3569153;40;19962;-53
2021/05/05 05:57:34;;;;;;;;;;;;;;;12.49;49.70;95030.22;3550246;40;19948;-53
2021/05/05 06:00:01;;;;;;;;;;;;;;;12.60;49.37;95034.28;3547963;40;19940;-54
2021/05/05 06:02:38;;;;;;;;;;;;;;;12.63;49.89;95029.47;3574073;40;19944;-53
2021/05/05 06:05:06;;;;;;;;;;;;;;;12.64;49.69;95023.09;3563460;40;19970;-53
2021/05/05 06:07:33;;;;;;;;;;;;;;;12.80;49.11;95027.06;3582819;40;20003;-54
2021/05/05 06:10:01;;;;;;;;;;;;;;;12.95;48.59;95030.53;3572699;40;19943;-54
2021/05/05 06:12:28;;;;;;;;;;;;;;;13.11;49.50;95026.50;3573272;40;20264;-54
2021/05/05 06:14:55;;;;;;;;;;;;;;;13.25;48.97;95031.00;3582662;40;19937;-53
2021/05/05 06:17:22;;;;;;;;;;;;;;;13.28;48.13;95022.50;3572935;40;19963;-54
2021/05/05 06:19:49;;;;;;;;;;;;;;;13.34;48.34;95016.81;3575121;40;20548;-53
2021/05/05 06:22:16;;;;;;;;;;;;;;;13.38;48.72;95012.50;3574645;40;19943;-53
2021/05/05 06:24:45;;;;;;;;;;;;;;;13.45;48.59;95006.81;3574376;40;19937;-54
2021/05/05 06:27:12;;;;;;;;;;;;;;;13.49;47.64;94997.19;3574568;40;19948;-54
2021/05/05 06:29:40;;;;;;;;;;;;;;;13.63;48.23;94994.53;3573950;40;20225;-53
2021/05/05 06:32:07;;;;;;;;;;;;;;;13.75;48.21;94994.00;3574877;40;19974;-55
2021/05/05 06:34:34;;;;;;;;;;;;;;;13.81;49.41;94981.41;3574494;40;19945;-53
2021/05/05 06:37:03;;;;;;;;;;;;;;;13.86;48.24;94977.88;3565788;40;19937;-53
2021/05/05 06:39:30;;;;;;;;;;;;;;;13.83;49.13;94987.22;3584769;40;19948;-54
2021/05/05 06:41:57;;;;;;;;;;;;;;;13.79;47.96;94981.72;3582332;40;19948;-54
2021/05/05 06:44:25;;;;;;;;;;;;;;;13.91;46.12;94977.78;3579407;40;19952;-54
2021/05/05 06:46:55;;;;;;;;;;;;;;;13.78;46.64;94969.56;3574945;40;20369;-52
2021/05/05 06:49:22;;;;;;;;;;;;;;;14.01;47.08;94966.94;3560918;40;19944;-53
2021/05/05 06:51:50;;;;;;;;;;;;;;;14.23;44.50;94960.06;3577461;40;20373;-53
2021/05/05 06:54:17;;;;;;;;;;;;;;;14.50;45.12;94955.69;3576999;40;19941;-53
2021/05/05 06:56:44;;;;;;;;;;;;;;;14.73;43.29;94957.22;3569861;40;19948;-53
2021/05/05 06:59:11;;;;;;;;;;;;;;;15.02;42.38;94955.16;3577157;40;19950;-54
2021/05/05 07:01:39;;;;;;;;;;;;;;;15.12;41.89;94952.25;3579690;40;20022;-54
2021/05/05 07:04:07;;;;;;;;;;;;;;;15.43;43.24;94951.38;3572699;40;19948;-54
2021/05/05 07:06:34;;;;;;;;;;;;;;;15.67;41.56;94950.94;3571489;40;19990;-52
2021/05/05 07:09:03;;;;;;;;;;;;;;;15.72;40.47;94947.34;3579960;40;19955;-54
2021/05/05 07:11:32;;;;;;;;;;;;;;;15.71;41.76;94940.47;3578171;40;19962;-53
2021/05/05 07:13:59;;;;;;;;;;;;;;;16.07;41.88;94935.91;3577695;40;19952;-54
2021/05/05 07:16:26;;;;;;;;;;;;;;;16.44;40.89;94933.66;3578471;40;19948;-52
2021/05/05 07:18:53;;;;;;;;;;;;;;;16.70;39.20;94924.81;3579697;40;19944;-54
2021/05/05 07:21:21;;;;;;;;;;;;;;;16.74;40.50;94925.75;3582139;40;19948;-54
2021/05/05 07:23:48;;;;;;;;;;;;;;;16.89;38.88;94922.56;3579415;40;19951;-53
2021/05/05 07:26:15;;;;;;;;;;;;;;;17.12;38.21;94914.31;3578874;40;20297;-53
2021/05/05 07:28:43;;;;;;;;;;;;;;;17.40;39.41;94918.38;3578329;40;19944;-54
2021/05/05 07:31:10;;;;;;;;;;;;;;;17.55;36.99;94904.50;3579301;40;19951;-54
2021/05/05 07:33:37;;;;;;;;;;;;;;;17.34;36.63;94897.28;3571411;40;20256;-54
2021/05/05 07:36:09;;;;;;;;;;;;;;;17.15;37.52;94902.22;3580957;40;19944;-53
2021/05/05 07:41:52;;;;;;;;;;;;;;;17.19;38.71;94893.28;3580450;40;20286;-53
2021/05/05 07:47:13;;;;;;;;;;;;;;;17.28;37.06;94884.47;3562843;40;19948;-54
2021/05/05 07:49:46;;;;;;;;;;;;;;;17.13;37.31;94878.59;3579168;40;19948;-53
2021/05/05 07:52:13;;;;;;;;;;;;;;;17.05;37.29;94884.72;3580777;40;19941;-53
2021/05/05 07:54:39;;;;;;;;;;;;;;;17.05;36.98;94874.88;3573339;40;19947;-53
2021/05/05 07:57:05;;;;;;;;;;;;;;;17.14;37.15;94872.16;3584760;40;19936;-54
2021/05/05 07:59:32;;;;;;;;;;;;;;;17.18;36.91;94870.38;3575410;40;20012;-53
2021/05/05 08:01:59;;;;;;;;;;;;;;;17.28;37.05;94873.81;3572012;40;19943;-53
2021/05/05 08:04:26;;;;;;;;;;;;;;;17.35;35.80;94868.72;3576596;40;19943;-54
2021/05/05 08:06:53;;;;;;;;;;;;;;;17.37;37.01;94871.84;3582265;40;19937;-52
2021/05/05 08:09:22;;;;;;;;;;;;;;;17.54;36.98;94867.50;3575398;40;19936;-55
2021/05/05 08:11:49;;;;;;;;;;;;;;;17.66;37.81;94863.00;3574926;40;20490;-54
2021/05/05 08:14:17;;;;;;;;;;;;;;;17.68;37.38;94854.66;3573774;40;20357;-53
2021/05/05 08:16:44;;;;;;;;;;;;;;;17.64;37.06;94851.88;3583199;40;19956;-54
2021/05/05 08:19:11;;;;;;;;;;;;;;;17.54;36.78;94851.50;3584773;40;19943;-54
2021/05/05 08:21:41;;;;;;;;;;;;;;;17.48;35.24;94862.34;3585421;40;19936;-53
2021/05/05 08:24:09;;;;;;;;;;;;;;;17.49;35.20;94847.91;3574778;40;19944;-53
2021/05/05 08:26:36;;;;;;;;;;;;;;;17.58;33.82;94853.19;3584998;40;19937;-53
2021/05/05 08:29:03;;;;;;;;;;;;;;;17.61;34.10;94852.50;3584336;40;19937;-53
2021/05/05 08:31:30;;;;;;;;;;;;;;;17.68;33.97;94846.66;3585188;40;19937;-54
2021/05/05 08:33:58;;;;;;;;;;;;;;;17.71;34.06;94847.91;3582926;40;19952;-54
2021/05/05 08:36:24;;;;;;;;;;;;;;;17.78;34.16;94840.94;3584386;40;19937;-53
2021/05/05 08:39:02;;;;;;;;;;;;;;;17.76;33.84;94842.34;3584823;40;20209;-53
2021/05/05 08:41:29;;;;;;;;;;;;;;;17.87;34.50;94832.06;3572962;40;19940;-57
2021/05/05 08:43:57;;;;;;;;;;;;;;;17.99;34.21;94834.78;3584453;40;19948;-53
2021/05/05 08:46:24;;;;;;;;;;;;;;;18.04;32.94;94817.78;3583166;40;19950;-53
2021/05/05 08:48:51;;;;;;;;;;;;;;;18.24;34.03;94818.84;3573345;40;20453;-53
2021/05/05 08:51:18;;;;;;;;;;;;;;;18.39;32.48;94825.41;3575298;40;20042;-57
2021/05/05 08:53:45;;;;;;;;;;;;;;;18.55;33.87;94818.31;3584578;40;19952;-54
2021/05/05 08:56:12;;;;;;;;;;;;;;;18.75;32.11;94805.94;3585459;40;19944;-52
2021/05/05 08:58:39;;;;;;;;;;;;;;;18.91;32.45;94799.91;3562751;40;20293;-54
2021/05/05 09:01:06;;;;;;;;;;;;;;;18.98;32.15;94802.81;3581400;40;19970;-56
2021/05/05 09:03:34;;;;;;;;;;;;;;;19.18;32.69;94794.97;3583950;40;20282;-54
2021/05/05 09:06:04;;;;;;;;;;;;;;;19.40;32.34;94798.25;3584962;40;19940;-54
2021/05/05 09:08:31;;;;;;;;;;;;;;;19.50;31.08;94792.44;3575467;40;19955;-54
2021/05/05 09:10:58;;;;;;;;;;;;;;;19.47;30.26;94785.09;3581539;40;19955;-55
2021/05/05 09:13:44;;;;;;;;;;;;;;;19.69;31.08;94780.31;3578995;40;19936;-54
2021/05/05 09:16:13;;;;;;;;;;;;;;;19.85;30.49;94791.81;3580187;40;19936;-53
2021/05/05 09:18:54;;;;;;;;;;;;;;;19.97;31.05;94791.00;3584325;40;19941;-54
2021/05/05 09:21:24;;;;;;;;;;;;;;;19.89;30.64;94776.66;3579545;40;19943;-52
2021/05/05 09:23:52;;;;;;;;;;;;;;;19.91;31.25;94776.31;3571550;40;19978;-52
2021/05/05 09:26:37;;;;;;;;;;;;;;;19.96;31.66;94776.84;3573514;40;20642;-52
2021/05/05 09:29:04;;;;;;;;;;;;;;;20.04;30.84;94771.66;3582795;40;19955;-56
2021/05/05 09:31:33;;;;;;;;;;;;;;;20.08;31.71;94767.19;3582554;40;19978;-53
2021/05/05 09:34:00;;;;;;;;;;;;;;;20.13;31.08;94764.22;3583932;40;19937;-53
2021/05/05 09:36:30;;;;;;;;;;;;;;;20.24;31.60;94764.50;3579675;40;19962;-53
2021/05/05 09:38:56;;;;;;;;;;;;;;;20.21;31.76;94765.97;3581695;40;19940;-54
2021/05/05 09:41:25;;;;;;;;;;;;;;;20.23;31.99;94761.06;3582678;40;19942;-53
2021/05/05 09:43:57;;;;;;;;;;;;;;;20.25;31.04;94753.44;3574279;40;19951;-53
2021/05/05 09:46:30;;;;;;;;;;;;;;;20.38;31.87;94756.00;3568631;40;20262;-53
2021/05/05 09:49:16;;;;;;;;;;;;;;;20.57;32.35;94755.31;3580618;40;19936;-53
2021/05/05 09:51:46;;;;;;;;;;;;;;;20.63;31.43;94750.44;3575172;40;19948;-52
2021/05/05 09:54:23;;;;;;;;;;;;;;;20.53;31.10;94749.88;3578917;40;19962;-52
2021/05/05 09:56:50;;;;;;;;;;;;;;;20.42;30.95;94740.81;3582247;40;19985;-52
2021/05/05 09:59:19;;;;;;;;;;;;;;;20.45;31.19;94737.44;3582849;40;19944;-52
2021/05/05 10:01:59;;;;;;;;;;;;;;;20.30;31.19;94736.34;3576496;40;19943;-53
2021/05/05 10:04:26;;;;;;;;;;;;;;;20.47;31.95;94732.53;3581689;40;20272;-53
2021/05/05 10:06:57;;;;;;;;;;;;;;;20.68;32.60;94744.84;3579425;40;20028;-53
2021/05/05 10:09:25;;;;;;;;;;;;;;;20.81;32.17;94722.19;3580241;40;19947;-53
2021/05/05 10:11:53;;;;;;;;;;;;;;;20.83;31.44;94724.50;3569333;40;19944;-54
2021/05/05 10:14:21;;;;;;;;;;;;;;;20.88;31.50;94716.19;3569896;40;19936;-54
2021/05/05 10:16:49;;;;;;;;;;;;;;;20.91;31.45;94722.75;3570313;40;19950;-53
2021/05/05 10:19:21;;;;;;;;;;;;;;;20.92;31.11;94719.72;3582604;40;19946;-53
2021/05/05 10:21:53;;;;;;;;;;;;;;;20.98;30.85;94714.88;3579168;40;19951;-53
2021/05/05 10:24:24;;;;;;;;;;;;;;;21.03;30.40;94714.56;3581260;40;19943;-54
2021/05/05 10:26:51;;;;;;;;;;;;;;;21.06;30.57;94719.25;3578205;40;19941;-54
2021/05/05 10:29:18;;;;;;;;;;;;;;;21.22;31.40;94718.41;3578755;40;19944;-54
2021/05/05 10:31:47;;;;;;;;;;;;;;;21.28;31.78;94728.50;3579586;40;19950;-53
2021/05/05 10:34:20;;;;;;;;;;;;;;;21.36;29.80;94726.69;3578854;40;19944;-55
2021/05/05 10:36:47;;;;;;;;;;;;;;;21.47;30.46;94722.34;3579959;40;19943;-54
2021/05/05 10:39:17;;;;;;;;;;;;;;;21.64;31.96;94714.97;3570806;40;19938;-54
2021/05/05 10:42:00;;;;;;;;;;;;;;;21.70;31.71;94721.59;3580406;40;19944;-54
2021/05/05 10:44:34;;;;;;;;;;;;;;;21.85;31.45;94719.94;3583473;40;19936;-54
2021/05/05 10:47:10;;;;;;;;;;;;;;;21.76;30.04;94714.03;3580210;40;19944;-53
2021/05/05 10:49:56;;;;;;;;;;;;;;;21.78;29.86;94709.84;3573062;40;19943;-53
2021/05/05 10:52:23;;;;;;;;;;;;;;;21.85;30.51;94724.50;3582351;40;19945;-53
2021/05/05 10:54:54;;;;;;;;;;;;;;;21.89;30.01;94720.00;3581798;40;20308;-53
2021/05/05 10:57:23;;;;;;;;;;;;;;;21.93;31.18;94712.78;3583870;40;19943;-53
2021/05/05 11:00:12;;;;;;;;;;;;;;;21.89;30.75;94711.94;3581306;40;19968;-56
2021/05/05 11:02:53;;;;;;;;;;;;;;;21.92;30.16;94712.00;3570749;40;19937;-53
2021/05/05 11:05:30;;;;;;;;;;;;;;;21.73;29.68;94712.81;3572586;40;19953;-52
2021/05/05 11:07:58;;;;;;;;;;;;;;;21.54;28.35;94718.22;3583345;40;19937;-52
2021/05/05 11:10:31;;;;;;;;;;;;;;;21.47;29.75;94724.22;3582127;40;19945;-53
2021/05/05 11:13:22;;;;;;;;;;;;;;;21.43;30.11;94713.44;3584879;40;19936;-53
2021/05/05 11:15:52;;;;;;;;;;;;;;;21.39;29.15;94709.91;3574728;40;20046;-53
2021/05/05 11:18:29;;;;;;;;;;;;;;;21.42;29.85;94711.09;3583353;40;19944;-54
2021/05/05 11:20:59;;;;;;;;;;;;;;;21.44;29.47;94711.50;3583651;40;20002;-52
2021/05/05 11:23:32;;;;;;;;;;;;;;;21.47;28.41;94716.19;3584917;40;19937;-53
2021/05/05 11:26:15;;;;;;;;;;;;;;;21.70;29.45;94713.56;3582008;40;19948;-54
2021/05/05 11:28:55;;;;;;;;;;;;;;;22.01;28.21;94711.75;3584439;40;19978;-54
2021/05/05 11:31:41;;;;;;;;;;;;;;;21.95;27.53;94718.56;3572576;40;19943;-54
2021/05/05 11:34:08;;;;;;;;;;;;;;;21.80;26.91;94715.66;3575631;40;20036;-53
2021/05/05 11:36:35;;;;;;;;;;;;;;;21.81;27.32;94700.31;3585373;40;20438;-54
2021/05/05 11:39:03;;;;;;;;;;;;;;;21.89;27.01;94714.63;3585716;40;19932;-54
2021/05/05 11:41:32;;;;;;;;;;;;;;;21.89;26.49;94711.94;3575052;40;19943;-54
2021/05/05 11:43:58;;;;;;;;;;;;;;;21.88;26.56;94705.03;3576653;40;19932;-53
2021/05/05 11:46:26;;;;;;;;;;;;;;;21.68;27.77;94705.09;3582922;40;19937;-53
2021/05/05 11:48:53;;;;;;;;;;;;;;;21.78;28.73;94703.72;3580715;40;19943;-53
2021/05/05 11:51:22;;;;;;;;;;;;;;;21.81;27.36;94703.78;3573217;40;19941;-57
2021/05/05 11:53:50;;;;;;;;;;;;;;;21.83;26.58;94706.09;3585818;40;20294;-53
2021/05/05 11:56:18;;;;;;;;;;;;;;;21.56;28.39;94697.94;3581909;40;20228;-53
2021/05/05 11:59:01;;;;;;;;;;;;;;;21.43;29.09;94699.22;3585973;40;19941;-54
2021/05/05 12:01:36;;;;;;;;;;;;;;;21.34;29.49;94694.09;3581308;40;20236;-53
2021/05/05 12:04:11;;;;;;;;;;;;;;;21.26;29.60;94697.78;3581356;40;19942;-53
2021/05/05 12:06:58;;;;;;;;;;;;;;;21.22;29.44;94711.13;3584944;40;19944;-57
2021/05/05 12:09:32;;;;;;;;;;;;;;;21.17;29.35;94703.38;3576742;40;19941;-54
2021/05/05 12:12:18;;;;;;;;;;;;;;;21.35;29.76;94706.41;3574039;40;19941;-54
2021/05/05 12:14:46;;;;;;;;;;;;;;;21.32;29.77;94701.72;3584170;40;20221;-54
2021/05/05 12:17:17;;;;;;;;;;;;;;;21.34;29.43;94702.91;3583531;40;19936;-54
2021/05/05 12:19:52;;;;;;;;;;;;;;;21.57;30.30;94712.91;3584793;40;20205;-54
2021/05/05 12:22:19;;;;;;;;;;;;;;;21.53;30.37;94706.72;3566706;40;20448;-54
2021/05/05 12:25:04;;;;;;;;;;;;;;;21.59;30.43;94710.69;3584979;40;19943;-53
2021/05/05 12:27:31;;;;;;;;;;;;;;;21.70;30.10;94704.72;3572582;40;19936;-54
2021/05/05 12:29:59;;;;;;;;;;;;;;;21.72;30.65;94695.19;3581943;40;19940;-52
2021/05/05 12:32:45;;;;;;;;;;;;;;;21.70;30.64;94700.13;3584035;40;19936;-56
2021/05/05 12:35:20;;;;;;;;;;;;;;;21.69;29.74;94709.31;3585335;40;20216;-54
2021/05/05 12:37:47;;;;;;;;;;;;;;;21.69;30.86;94705.84;3573954;40;19936;-54
2021/05/05 12:40:14;;;;;;;;;;;;;;;21.58;29.93;94709.09;3581211;40;19937;-64
2021/05/05 12:42:41;;;;;;;;;;;;;;;21.51;30.89;94717.78;3581134;40;20028;-54
2021/05/05 12:45:12;;;;;;;;;;;;;;;21.49;29.50;94717.38;3571692;40;19936;-54
2021/05/05 12:47:40;;;;;;;;;;;;;;;21.80;29.65;94706.81;3580471;40;22587;-56
2021/05/05 12:50:08;;;;;;;;;;;;;;;22.11;29.92;94713.84;3573975;40;19944;-54
2021/05/05 12:52:37;;;;;;;;;;;;;;;22.21;29.72;94709.00;3584416;40;19952;-55
2021/05/05 12:55:23;;;;;;;;;;;;;;;22.09;28.35;94699.22;3582337;40;19949;-54
2021/05/05 12:57:57;;;;;;;;;;;;;;;22.15;29.22;94694.31;3580701;40;19940;-54
2021/05/05 13:00:24;;;;;;;;;;;;;;;22.35;28.96;94695.78;3579669;40;20301;-54
2021/05/05 13:03:22;;;;;;;;;;;;;;;22.65;28.92;94697.75;3582539;40;19940;-54
2021/05/05 13:05:58;;;;;;;;;;;;;;;22.85;27.13;94689.56;3577464;40;19942;-54